Time;durP1;ratioP1;P1;durP2;ratioP2;P2;SDS_P1;SDS_P2;PMS_P1;PMS_P2;Temp;Humidity;BMP_temperature;BMP_pressure;BME280_temperature;BME280_humidity;BME280_pressure;Samples;Min_cycle;Max_cycle;Signal;HPM_P1;HPM_P2
2021/09/11 00:00:16;;;;;;;9.85;5.18;;;18.20;81.70;;;;;;5028167;28;20090;-69
2021/09/11 00:02:43;;;;;;;11.30;5.55;;;18.20;81.70;;;;;;5018992;28;20165;-69
2021/09/11 00:05:09;;;;;;;9.15;4.60;;;18.20;81.90;;;;;;5017446;28;20048;-70
2021/09/11 00:07:35;;;;;;;13.15;4.88;;;18.20;82.00;;;;;;5024189;28;20481;-69
2021/09/11 00:10:01;;;;;;;10.25;5.25;;;18.20;81.80;;;;;;5022472;28;20037;-72
2021/09/11 00:12:27;;;;;;;11.27;5.30;;;18.20;81.80;;;;;;5028041;28;20120;-69
2021/09/11 00:14:52;;;;;;;13.32;5.25;;;18.30;81.70;;;;;;5028558;28;20052;-70
2021/09/11 00:17:18;;;;;;;10.32;5.10;;;18.20;81.60;;;;;;5030206;28;20540;-68
2021/09/11 00:19:44;;;;;;;10.95;4.55;;;18.30;81.50;;;;;;5026763;28;20520;-69
2021/09/11 00:22:09;;;;;;;11.45;4.88;;;18.30;81.50;;;;;;5030180;28;20025;-69
2021/09/11 00:24:35;;;;;;;11.82;4.82;;;18.20;81.50;;;;;;5031752;28;20038;-69
2021/09/11 00:27:01;;;;;;;10.55;4.85;;;18.30;81.30;;;;;;5029010;28;20132;-70
2021/09/11 00:29:26;;;;;;;10.38;4.30;;;18.20;81.30;;;;;;5020853;28;20388;-69
2021/09/11 00:31:52;;;;;;;10.95;4.45;;;18.30;81.20;;;;;;5029244;28;20086;-69
2021/09/11 00:34:18;;;;;;;8.38;3.70;;;18.20;81.00;;;;;;5028511;28;20045;-69
2021/09/11 00:36:44;;;;;;;11.82;4.45;;;18.20;80.80;;;;;;5028127;28;20111;-69
2021/09/11 00:39:09;;;;;;;12.43;4.20;;;18.20;80.90;;;;;;5026030;28;20036;-70
2021/09/11 00:41:35;;;;;;;10.70;3.97;;;18.20;81.00;;;;;;5030975;28;20055;-69
2021/09/11 00:44:01;;;;;;;9.70;4.70;;;18.10;81.20;;;;;;5026017;28;20041;-70
2021/09/11 00:46:27;;;;;;;12.20;3.88;;;18.20;81.40;;;;;;5027842;28;20411;-70
2021/09/11 00:48:53;;;;;;;11.50;4.13;;;18.20;81.10;;;;;;5031695;28;20113;-71
2021/09/11 00:51:19;;;;;;;8.43;3.60;;;18.20;80.90;;;;;;5024536;28;20104;-70
2021/09/11 00:53:45;;;;;;;10.80;4.00;;;18.20;80.80;;;;;;5028168;28;20435;-70
2021/09/11 00:56:12;;;;;;;10.63;3.90;;;18.20;80.80;;;;;;5027290;28;20034;-69
2021/09/11 00:58:38;;;;;;;11.50;4.75;;;18.20;80.60;;;;;;5024927;28;20049;-69
2021/09/11 01:01:04;;;;;;;10.20;3.42;;;18.20;80.70;;;;;;5023763;28;20025;-70
2021/09/11 01:03:29;;;;;;;12.85;3.78;;;18.20;80.80;;;;;;5029575;28;20029;-70
2021/09/11 01:05:55;;;;;;;9.32;3.47;;;18.20;80.70;;;;;;5021409;28;20125;-70
2021/09/11 01:08:21;;;;;;;9.95;3.80;;;18.20;80.60;;;;;;5027321;28;20396;-70
2021/09/11 01:10:47;;;;;;;8.32;3.25;;;18.20;80.50;;;;;;5026349;28;20052;-70
2021/09/11 01:13:13;;;;;;;11.18;3.65;;;18.30;80.40;;;;;;5022622;28;20393;-69
2021/09/11 01:15:40;;;;;;;9.15;3.55;;;18.30;80.20;;;;;;5024109;28;20105;-69
2021/09/11 01:18:09;;;;;;;11.30;3.63;;;18.30;80.30;;;;;;5025645;28;20096;-70
2021/09/11 01:20:37;;;;;;;10.02;4.22;;;18.20;80.00;;;;;;5023746;28;20038;-70
2021/09/11 01:23:03;;;;;;;9.32;3.65;;;18.20;80.10;;;;;;5024594;28;20048;-69
2021/09/11 01:25:28;;;;;;;9.52;3.80;;;18.20;80.10;;;;;;5024533;28;20045;-69
2021/09/11 01:27:54;;;;;;;11.15;3.85;;;18.30;80.10;;;;;;5022604;28;20466;-71
2021/09/11 01:30:21;;;;;;;11.77;4.15;;;18.20;80.10;;;;;;5018508;28;20044;-70
2021/09/11 01:32:49;;;;;;;11.65;4.07;;;18.20;80.10;;;;;;5024619;28;20075;-70
2021/09/11 01:35:16;;;;;;;9.98;3.75;;;18.20;80.00;;;;;;5023905;28;20033;-69
2021/09/11 01:37:42;;;;;;;9.75;3.83;;;18.20;80.00;;;;;;5034534;28;20104;-69
2021/09/11 01:40:09;;;;;;;9.00;4.00;;;18.20;80.00;;;;;;5027265;28;20042;-69
2021/09/11 01:42:35;;;;;;;8.50;3.95;;;18.10;80.00;;;;;;5023830;28;20545;-69
2021/09/11 01:45:08;;;;;;;9.13;3.90;;;18.10;80.00;;;;;;5024687;28;20144;-71
2021/09/11 01:47:35;;;;;;;11.82;4.00;;;18.10;80.00;;;;;;5027335;28;20045;-69
2021/09/11 01:50:00;;;;;;;10.95;3.80;;;18.20;79.90;;;;;;5006811;28;20030;-69
2021/09/11 01:52:26;;;;;;;8.77;3.90;;;18.20;79.70;;;;;;5000239;28;20034;-71
2021/09/11 01:54:52;;;;;;;11.77;4.38;;;18.10;80.00;;;;;;5005710;28;20029;-69
2021/09/11 01:57:17;;;;;;;9.88;3.60;;;18.10;80.10;;;;;;5004852;28;20072;-69
2021/09/11 01:59:43;;;;;;;10.38;3.63;;;18.20;80.00;;;;;;5013610;28;20466;-68
2021/09/11 02:02:09;;;;;;;9.82;3.72;;;18.20;79.80;;;;;;5026601;28;20034;-70
2021/09/11 02:04:37;;;;;;;10.65;3.78;;;18.20;79.80;;;;;;5024216;28;20393;-70
2021/09/11 02:07:03;;;;;;;10.50;3.95;;;18.20;79.90;;;;;;5032464;28;20044;-69
2021/09/11 02:09:30;;;;;;;11.13;4.25;;;18.20;79.80;;;;;;5025225;28;20052;-69
2021/09/11 02:11:56;;;;;;;9.27;3.50;;;18.20;79.80;;;;;;5025026;28;20033;-69
2021/09/11 02:14:21;;;;;;;7.47;3.58;;;18.20;79.90;;;;;;5023662;28;20367;-69
2021/09/11 02:16:47;;;;;;;8.65;4.32;;;18.30;80.00;;;;;;5026866;28;20475;-69
2021/09/11 02:19:13;;;;;;;10.68;4.43;;;18.30;79.90;;;;;;5024010;28;20025;-69
2021/09/11 02:21:39;;;;;;;7.82;3.95;;;18.30;80.00;;;;;;5029598;28;20034;-69
2021/09/11 02:24:06;;;;;;;8.52;4.22;;;18.30;79.90;;;;;;5028594;28;20083;-69
2021/09/11 02:26:31;;;;;;;9.65;3.97;;;18.30;80.00;;;;;;5024310;28;20455;-70
2021/09/11 02:28:57;;;;;;;10.43;4.40;;;18.20;80.20;;;;;;5026042;28;20030;-69
2021/09/11 02:31:23;;;;;;;9.07;4.18;;;18.20;80.20;;;;;;5022136;28;20033;-69
2021/09/11 02:33:49;;;;;;;10.02;4.30;;;18.20;80.30;;;;;;5017882;28;20037;-69
2021/09/11 02:36:15;;;;;;;8.88;4.13;;;18.20;80.60;;;;;;5019493;28;20117;-69
2021/09/11 02:38:42;;;;;;;13.38;4.82;;;18.20;80.60;;;;;;5020639;28;20041;-69
2021/09/11 02:41:08;;;;;;;9.43;4.35;;;18.20;80.60;;;;;;5021039;28;20046;-72
2021/09/11 02:43:34;;;;;;;10.38;4.22;;;18.10;80.60;;;;;;5030535;28;20380;-70
2021/09/11 02:45:59;;;;;;;10.55;4.45;;;18.10;80.70;;;;;;5029177;28;20107;-69
2021/09/11 02:48:25;;;;;;;10.43;3.90;;;18.10;80.80;;;;;;5025775;28;20045;-69
2021/09/11 02:50:51;;;;;;;11.38;3.70;;;18.10;81.00;;;;;;5030081;28;20451;-68
2021/09/11 02:53:16;;;;;;;9.48;4.35;;;18.10;80.80;;;;;;5033741;28;20037;-71
2021/09/11 02:55:42;;;;;;;8.95;3.60;;;18.10;80.90;;;;;;5029349;28;20030;-69
2021/09/11 02:58:08;;;;;;;10.05;4.68;;;18.10;81.00;;;;;;5036816;28;20044;-72
2021/09/11 03:00:34;;;;;;;10.55;3.88;;;18.10;81.00;;;;;;5031019;28;20232;-68
2021/09/11 03:03:00;;;;;;;10.38;4.70;;;18.10;80.90;;;;;;5025951;28;20037;-68
2021/09/11 03:05:26;;;;;;;11.63;4.82;;;18.10;81.00;;;;;;5030554;28;20029;-69
2021/09/11 03:07:52;;;;;;;10.88;4.82;;;18.10;81.00;;;;;;5023564;28;20054;-68
2021/09/11 03:10:17;;;;;;;13.05;5.03;;;18.10;81.50;;;;;;5029920;28;20072;-69
2021/09/11 03:12:43;;;;;;;10.88;5.25;;;18.00;81.50;;;;;;5024765;28;20034;-69
2021/09/11 03:15:09;;;;;;;10.38;5.03;;;18.00;81.60;;;;;;5027065;28;20037;-69
2021/09/11 03:17:35;;;;;;;11.95;5.30;;;18.00;81.90;;;;;;5030374;28;20025;-68
2021/09/11 03:20:01;;;;;;;11.98;5.25;;;18.00;81.70;;;;;;5026689;28;20396;-69
2021/09/11 03:22:27;;;;;;;10.25;5.65;;;18.00;81.90;;;;;;5029564;28;20469;-70
2021/09/11 03:24:53;;;;;;;9.88;5.32;;;18.00;82.00;;;;;;5028667;28;20068;-69
2021/09/11 03:27:18;;;;;;;12.00;5.20;;;18.00;82.10;;;;;;5030259;28;20096;-68
2021/09/11 03:29:44;;;;;;;10.48;5.30;;;17.90;82.20;;;;;;5029296;28;20103;-68
2021/09/11 03:32:10;;;;;;;10.43;5.38;;;18.00;82.30;;;;;;5026291;28;20450;-68
2021/09/11 03:34:35;;;;;;;12.73;5.05;;;18.00;82.30;;;;;;5024789;28;20088;-71
2021/09/11 03:37:03;;;;;;;12.20;4.55;;;18.10;82.20;;;;;;5022786;28;20038;-71
2021/09/11 03:39:28;;;;;;;12.60;5.18;;;18.00;82.00;;;;;;5025803;28;20413;-69
2021/09/11 03:41:54;;;;;;;13.38;5.68;;;18.00;82.20;;;;;;5023709;28;20033;-70
2021/09/11 03:44:19;;;;;;;11.27;5.18;;;18.00;82.50;;;;;;5027280;28;20469;-68
2021/09/11 03:46:45;;;;;;;9.75;4.93;;;17.90;82.60;;;;;;5025425;28;20098;-71
2021/09/11 03:49:11;;;;;;;13.40;5.57;;;17.90;82.50;;;;;;5019638;28;20044;-69
2021/09/11 03:51:36;;;;;;;12.80;4.88;;;18.00;82.50;;;;;;5030901;28;20490;-69
2021/09/11 03:54:02;;;;;;;14.18;5.63;;;18.00;82.50;;;;;;5027062;28;20121;-69
2021/09/11 03:56:28;;;;;;;11.27;5.05;;;18.00;82.40;;;;;;5028914;28;20044;-69
2021/09/11 03:58:54;;;;;;;10.57;5.03;;;18.00;82.40;;;;;;5030673;28;20025;-68
2021/09/11 04:01:20;;;;;;;12.10;5.07;;;18.00;82.40;;;;;;5028509;28;20046;-69
2021/09/11 04:03:46;;;;;;;10.63;5.22;;;17.90;82.50;;;;;;5029114;28;20464;-69
2021/09/11 04:06:11;;;;;;;11.13;4.80;;;18.00;82.40;;;;;;5028871;28;20481;-70
2021/09/11 04:08:38;;;;;;;11.82;5.43;;;18.00;82.50;;;;;;5027670;28;20037;-69
2021/09/11 04:11:04;;;;;;;11.70;4.95;;;18.00;82.60;;;;;;5024650;28;20514;-69
2021/09/11 04:13:29;;;;;;;10.80;4.80;;;18.10;82.50;;;;;;5025958;28;20033;-69
2021/09/11 04:15:55;;;;;;;11.18;5.82;;;18.00;82.60;;;;;;5026342;28;20037;-69
2021/09/11 04:18:21;;;;;;;11.20;5.10;;;18.00;83.00;;;;;;5022347;28;20090;-69
2021/09/11 04:20:47;;;;;;;9.57;5.40;;;18.00;83.40;;;;;;5025792;28;20037;-71
2021/09/11 04:23:12;;;;;;;15.48;5.72;;;18.00;83.80;;;;;;5030382;28;20041;-69
2021/09/11 04:25:38;;;;;;;14.55;6.20;;;18.00;83.80;;;;;;5025507;28;20047;-69
2021/09/11 04:28:04;;;;;;;12.40;6.22;;;18.00;83.80;;;;;;5024687;28;20050;-70
2021/09/11 04:30:29;;;;;;;12.13;5.57;;;18.00;83.80;;;;;;5026432;28;20473;-69
2021/09/11 04:32:55;;;;;;;11.23;5.22;;;18.00;83.70;;;;;;5027157;28;20464;-71
2021/09/11 04:35:21;;;;;;;14.77;6.00;;;17.90;83.90;;;;;;5027361;28;20045;-69
2021/09/11 04:37:47;;;;;;;14.10;5.82;;;18.00;84.00;;;;;;5028070;28;20033;-69
2021/09/11 04:40:13;;;;;;;12.45;5.97;;;18.00;84.10;;;;;;5024916;28;20746;-69
2021/09/11 04:42:39;;;;;;;12.88;6.80;;;17.90;84.30;;;;;;5024283;28;20033;-69
2021/09/11 04:45:05;;;;;;;11.82;6.55;;;17.90;84.20;;;;;;5024910;28;20030;-72
2021/09/11 04:47:30;;;;;;;11.88;6.25;;;17.90;84.20;;;;;;5028522;28;20037;-70
2021/09/11 04:49:56;;;;;;;15.73;6.60;;;17.90;84.40;;;;;;5027641;28;20116;-69
2021/09/11 04:52:22;;;;;;;13.77;6.50;;;18.00;84.40;;;;;;5023501;28;20030;-71
2021/09/11 04:54:48;;;;;;;12.15;6.68;;;18.00;84.30;;;;;;5025184;28;20037;-69
2021/09/11 04:57:13;;;;;;;14.15;6.72;;;18.00;84.20;;;;;;5019499;28;20092;-69
2021/09/11 04:59:39;;;;;;;12.63;5.95;;;18.00;84.30;;;;;;5032192;28;20432;-69
2021/09/11 05:02:05;;;;;;;16.58;6.88;;;18.00;84.50;;;;;;5024878;28;20029;-69
2021/09/11 05:04:31;;;;;;;13.15;6.78;;;18.00;84.40;;;;;;5026597;28;20449;-69
2021/09/11 05:06:58;;;;;;;15.10;7.28;;;18.00;84.50;;;;;;5024722;28;20452;-69
2021/09/11 05:09:24;;;;;;;16.98;7.10;;;18.00;84.50;;;;;;5025059;28;20125;-70
2021/09/11 05:11:49;;;;;;;12.70;7.22;;;18.00;84.70;;;;;;5027783;28;20112;-69
2021/09/11 05:14:15;;;;;;;12.18;7.03;;;18.00;84.60;;;;;;5024814;28;20061;-69
2021/09/11 05:16:41;;;;;;;14.52;6.63;;;18.00;84.80;;;;;;5025363;28;20083;-69
2021/09/11 05:19:07;;;;;;;11.68;6.55;;;17.90;85.00;;;;;;5025048;28;20037;-69
2021/09/11 05:21:32;;;;;;;15.25;7.05;;;18.00;84.90;;;;;;5024891;28;20084;-69
2021/09/11 05:23:59;;;;;;;14.07;6.93;;;18.00;84.90;;;;;;5021977;28;20083;-69
2021/09/11 05:26:25;;;;;;;13.88;6.95;;;18.00;84.70;;;;;;5021188;28;20080;-69
2021/09/11 05:28:51;;;;;;;14.30;7.45;;;18.10;84.90;;;;;;5021011;28;20044;-69
2021/09/11 05:31:16;;;;;;;12.35;7.43;;;18.10;84.90;;;;;;5026762;28;20488;-68
2021/09/11 05:33:42;;;;;;;14.63;7.20;;;18.10;84.80;;;;;;5016289;28;20071;-67
2021/09/11 05:36:08;;;;;;;11.55;6.60;;;18.10;84.90;;;;;;5026214;28;20041;-69
2021/09/11 05:38:34;;;;;;;15.07;7.63;;;18.10;84.80;;;;;;5017795;28;20468;-69
2021/09/11 05:41:00;;;;;;;17.60;7.53;;;18.10;84.90;;;;;;5029172;28;20113;-69
2021/09/11 05:43:26;;;;;;;13.65;7.22;;;18.10;84.90;;;;;;5027085;28;20117;-69
2021/09/11 05:45:52;;;;;;;14.82;7.30;;;18.10;84.90;;;;;;5027201;28;20045;-69
2021/09/11 05:48:17;;;;;;;16.90;7.20;;;18.20;84.80;;;;;;5027648;28;20041;-69
2021/09/11 05:50:43;;;;;;;12.18;6.40;;;18.20;84.60;;;;;;5024102;28;20034;-68
2021/09/11 05:53:09;;;;;;;16.63;7.47;;;18.30;84.50;;;;;;5027281;28;20099;-71
2021/09/11 05:55:35;;;;;;;15.40;7.07;;;18.30;84.40;;;;;;5027737;28;20465;-69
2021/09/11 05:58:01;;;;;;;12.88;7.35;;;18.30;84.40;;;;;;5030789;28;20044;-69
2021/09/11 06:00:27;;;;;;;12.38;7.35;;;18.30;84.30;;;;;;5020707;28;20349;-72
2021/09/11 06:02:52;;;;;;;13.10;7.25;;;18.40;84.20;;;;;;5026908;28;20045;-69
2021/09/11 06:05:18;;;;;;;12.68;6.68;;;18.40;84.20;;;;;;5025574;28;20061;-69
2021/09/11 06:07:44;;;;;;;16.17;6.95;;;18.40;84.10;;;;;;5023967;28;20120;-69
2021/09/11 06:10:10;;;;;;;16.42;7.50;;;18.40;84.00;;;;;;5020115;28;20033;-69
2021/09/11 06:12:36;;;;;;;14.27;7.88;;;18.40;84.10;;;;;;5026165;28;20041;-69
2021/09/11 06:15:02;;;;;;;13.27;7.53;;;18.40;84.30;;;;;;5025606;28;20036;-71
2021/09/11 06:17:28;;;;;;;13.10;7.00;;;18.40;84.20;;;;;;5020756;28;20653;-68
2021/09/11 06:19:53;;;;;;;16.80;7.00;;;18.30;84.20;;;;;;5021049;28;20037;-68
2021/09/11 06:22:19;;;;;;;13.45;7.55;;;18.30;84.20;;;;;;5020271;28;20057;-69
2021/09/11 06:24:45;;;;;;;11.75;6.63;;;18.40;84.20;;;;;;5019789;28;20216;-69
2021/09/11 06:27:13;;;;;;;13.07;6.85;;;18.50;84.30;;;;;;5023656;28;20507;-70
2021/09/11 06:29:39;;;;;;;16.77;7.30;;;18.50;84.00;;;;;;5024527;28;20064;-72
2021/09/11 06:32:05;;;;;;;13.32;7.38;;;18.50;83.90;;;;;;5017694;28;20462;-73
2021/09/11 06:34:30;;;;;;;12.95;6.68;;;18.40;84.20;;;;;;5018866;28;20493;-70
2021/09/11 06:36:59;;;;;;;12.25;6.80;;;18.50;84.00;;;;;;5019967;28;20127;-69
2021/09/11 06:39:25;;;;;;;16.10;7.13;;;18.60;83.90;;;;;;5022071;28;20068;-69
2021/09/11 06:41:51;;;;;;;13.82;6.82;;;18.70;83.60;;;;;;5022021;28;20030;-69
2021/09/11 06:44:17;;;;;;;13.05;7.20;;;18.80;83.10;;;;;;5024051;28;20037;-69
2021/09/11 06:46:43;;;;;;;14.15;6.78;;;19.00;82.70;;;;;;5022289;28;20038;-68
2021/09/11 06:49:09;;;;;;;14.45;7.28;;;19.10;82.40;;;;;;5020850;28;20030;-70
2021/09/11 06:51:34;;;;;;;13.80;6.70;;;19.10;82.00;;;;;;5022695;28;20041;-71
2021/09/11 06:54:00;;;;;;;14.60;6.97;;;19.30;81.60;;;;;;5021212;28;20045;-70
2021/09/11 06:56:26;;;;;;;13.23;7.07;;;19.40;81.30;;;;;;5020682;28;20541;-69
2021/09/11 06:58:51;;;;;;;11.55;6.65;;;19.50;81.00;;;;;;5029509;28;20481;-72
2021/09/11 07:01:17;;;;;;;17.05;7.50;;;19.50;80.80;;;;;;5019440;28;20401;-71
2021/09/11 07:03:45;;;;;;;14.13;7.63;;;19.60;80.50;;;;;;5012797;28;20124;-70
2021/09/11 07:06:11;;;;;;;16.17;7.50;;;19.60;80.60;;;;;;5026429;28;20037;-71
2021/09/11 07:08:36;;;;;;;11.40;7.30;;;19.40;81.20;;;;;;5024441;28;20040;-69
2021/09/11 07:11:02;;;;;;;12.90;7.07;;;19.30;81.20;;;;;;5015558;28;20030;-68
2021/09/11 07:13:28;;;;;;;12.52;6.95;;;19.30;81.40;;;;;;5020241;28;20124;-68
2021/09/11 07:15:53;;;;;;;13.85;7.00;;;19.30;81.60;;;;;;5021671;28;20091;-68
2021/09/11 07:18:19;;;;;;;15.57;7.65;;;19.40;81.50;;;;;;5018461;28;20049;-68
2021/09/11 07:20:44;;;;;;;14.23;7.38;;;19.40;81.40;;;;;;5024436;28;20099;-69
2021/09/11 07:23:10;;;;;;;13.23;7.63;;;19.50;81.00;;;;;;5019808;28;20073;-68
2021/09/11 07:25:36;;;;;;;14.98;8.48;;;19.40;81.40;;;;;;5021669;28;20029;-68
2021/09/11 07:28:02;;;;;;;16.30;8.43;;;19.40;81.30;;;;;;5024423;28;20045;-68
2021/09/11 07:30:28;;;;;;;16.02;8.50;;;19.40;81.60;;;;;;5024179;28;20041;-68
2021/09/11 07:32:53;;;;;;;13.15;8.73;;;19.40;81.70;;;;;;5023240;28;20460;-68
2021/09/11 07:35:19;;;;;;;12.32;7.95;;;19.40;81.90;;;;;;5021635;28;20083;-68
2021/09/11 07:37:45;;;;;;;12.45;8.25;;;19.60;81.70;;;;;;5022336;28;20034;-70
2021/09/11 07:40:11;;;;;;;13.98;7.88;;;19.70;81.30;;;;;;5021033;28;20088;-69
2021/09/11 07:42:37;;;;;;;17.15;8.73;;;19.90;81.10;;;;;;5018380;28;20429;-68
2021/09/11 07:45:03;;;;;;;16.45;9.07;;;20.10;80.10;;;;;;5019898;28;20187;-68
2021/09/11 07:47:28;;;;;;;15.43;8.10;;;20.20;79.60;;;;;;5020943;28;20144;-68
2021/09/11 07:49:54;;;;;;;12.18;7.72;;;20.20;79.10;;;;;;5022548;28;20120;-68
2021/09/11 07:52:20;;;;;;;15.27;8.27;;;20.20;79.90;;;;;;5020796;28;20078;-68
2021/09/11 07:54:45;;;;;;;12.77;8.02;;;20.20;79.40;;;;;;5023559;28;20037;-69
2021/09/11 07:57:11;;;;;;;15.13;8.00;;;20.20;79.60;;;;;;5022625;28;20037;-68
2021/09/11 07:59:37;;;;;;;13.48;8.50;;;20.10;79.20;;;;;;5022951;28;20197;-69
2021/09/11 08:02:03;;;;;;;12.30;7.80;;;20.00;79.80;;;;;;5025282;28;20388;-68
2021/09/11 08:04:29;;;;;;;13.55;8.48;;;20.10;79.80;;;;;;5023490;28;20061;-68
2021/09/11 08:06:56;;;;;;;14.48;8.02;;;20.10;79.80;;;;;;5029033;28;20488;-68
2021/09/11 08:09:22;;;;;;;14.27;8.10;;;20.10;79.70;;;;;;5025537;28;20071;-68
2021/09/11 08:11:48;;;;;;;14.18;7.45;;;20.10;79.50;;;;;;5022086;28;20080;-68
2021/09/11 08:14:13;;;;;;;14.48;8.32;;;20.10;79.50;;;;;;5026545;28;20037;-68
2021/09/11 08:16:39;;;;;;;12.70;8.00;;;20.10;79.60;;;;;;5024029;28;20099;-68
2021/09/11 08:19:05;;;;;;;13.05;7.40;;;20.10;79.90;;;;;;5027687;28;20034;-68
2021/09/11 08:21:30;;;;;;;12.20;7.55;;;20.10;80.10;;;;;;5024580;28;20041;-68
2021/09/11 08:23:56;;;;;;;11.85;7.22;;;20.10;79.90;;;;;;5031752;28;20044;-68
2021/09/11 08:26:22;;;;;;;16.38;8.13;;;20.00;80.00;;;;;;5021620;28;20053;-68
2021/09/11 08:28:48;;;;;;;12.65;7.03;;;20.00;79.90;;;;;;5024795;28;20473;-69
2021/09/11 08:31:14;;;;;;;11.98;7.70;;;20.10;80.00;;;;;;5021438;28;20046;-68
2021/09/11 08:33:42;;;;;;;12.88;7.45;;;20.10;80.40;;;;;;5028400;28;20045;-69
2021/09/11 08:36:08;;;;;;;16.08;7.60;;;20.00;80.60;;;;;;5024625;28;20041;-71
2021/09/11 08:38:34;;;;;;;12.82;7.07;;;20.00;80.30;;;;;;5022533;28;20037;-69
2021/09/11 08:41:06;;;;;;;12.68;6.97;;;20.00;80.50;;;;;;5026942;28;20061;-70
2021/09/11 08:43:32;;;;;;;13.07;6.88;;;20.10;80.40;;;;;;5022646;28;20055;-67
2021/09/11 08:45:58;;;;;;;10.50;6.10;;;20.10;80.30;;;;;;5024854;28;20076;-69
2021/09/11 08:48:26;;;;;;;13.02;6.95;;;20.10;80.20;;;;;;5025196;28;20128;-68
2021/09/11 08:50:52;;;;;;;12.88;7.57;;;20.10;79.90;;;;;;5023607;28;20041;-67
2021/09/11 08:53:18;;;;;;;11.07;6.57;;;20.10;79.70;;;;;;5023721;28;20068;-67
2021/09/11 08:55:45;;;;;;;11.35;6.53;;;20.30;79.60;;;;;;5019591;28;20410;-68
2021/09/11 08:58:11;;;;;;;13.23;7.15;;;20.40;79.20;;;;;;5025681;28;20068;-68
2021/09/11 09:00:41;;;;;;;11.70;7.07;;;20.50;79.20;;;;;;5019677;28;20422;-68
2021/09/11 09:03:38;;;;;;;11.40;7.50;;;20.50;78.90;;;;;;5021867;28;20124;-69
2021/09/11 09:06:25;;;;;;;11.82;7.55;;;20.50;79.30;;;;;;5024987;28;20065;-68
2021/09/11 09:08:57;;;;;;;15.13;8.38;;;20.40;79.70;;;;;;5025081;28;20052;-68
2021/09/11 09:11:33;;;;;;;17.38;9.43;;;20.50;79.70;;;;;;5023701;28;20035;-70
2021/09/11 09:14:05;;;;;;;15.15;9.18;;;20.60;78.80;;;;;;5023928;28;20036;-69
2021/09/11 09:16:40;;;;;;;13.30;8.68;;;20.70;78.90;;;;;;5025035;28;20033;-71
2021/09/11 09:19:20;;;;;;;15.50;9.30;;;21.10;78.10;;;;;;5026641;28;20029;-68
2021/09/11 09:21:47;;;;;;;15.25;8.95;;;21.50;76.30;;;;;;5026321;28;20086;-68
2021/09/11 09:24:25;;;;;;;12.77;8.75;;;21.40;76.40;;;;;;5021984;28;20029;-69
2021/09/11 09:26:53;;;;;;;13.30;9.80;;;21.20;76.80;;;;;;5023124;28;20100;-68
2021/09/11 09:29:20;;;;;;;14.82;9.55;;;21.30;76.50;;;;;;5027794;28;20037;-69
2021/09/11 09:31:49;;;;;;;15.77;10.25;;;21.30;76.80;;;;;;5022819;28;20047;-69
2021/09/11 09:34:37;;;;;;;16.77;11.35;;;21.20;76.80;;;;;;5028026;28;20038;-69
2021/09/11 09:37:05;;;;;;;15.70;10.20;;;21.10;77.60;;;;;;5017166;28;20037;-69
2021/09/11 09:39:42;;;;;;;17.60;9.82;;;21.10;77.40;;;;;;5024131;28;20037;-69
2021/09/11 09:42:08;;;;;;;14.45;10.15;;;21.10;77.30;;;;;;5026811;28;20029;-68
2021/09/11 09:45:00;;;;;;;14.13;9.38;;;21.10;77.80;;;;;;5025866;28;20033;-68
2021/09/11 09:47:26;;;;;;;17.52;10.25;;;21.20;77.70;;;;;;4999476;28;20807;-68
2021/09/11 09:50:10;;;;;;;16.15;10.82;;;21.20;78.40;;;;;;5010794;28;20133;-68
2021/09/11 09:52:37;;;;;;;15.77;9.90;;;21.10;77.70;;;;;;5000169;28;20026;-69
2021/09/11 09:55:04;;;;;;;18.70;9.75;;;21.10;79.20;;;;;;5003843;28;20022;-69
2021/09/11 09:57:30;;;;;;;17.95;9.68;;;21.20;78.70;;;;;;5008710;28;20466;-68
2021/09/11 09:59:58;;;;;;;13.68;8.57;;;21.30;77.70;;;;;;5018777;28;20391;-68
2021/09/11 10:02:24;;;;;;;13.98;9.35;;;21.30;77.40;;;;;;5025108;28;20086;-69
2021/09/11 10:04:51;;;;;;;12.65;7.93;;;21.30;77.30;;;;;;5026117;28;20037;-70
2021/09/11 10:07:19;;;;;;;14.30;7.93;;;21.20;77.70;;;;;;5025171;28;20073;-68
2021/09/11 10:09:48;;;;;;;15.00;8.95;;;21.00;77.50;;;;;;5020302;28;20029;-68
2021/09/11 10:12:41;;;;;;;14.07;8.50;;;20.70;79.00;;;;;;5026828;28;20113;-68
2021/09/11 10:15:27;;;;;;;14.55;8.75;;;20.70;80.00;;;;;;5019510;28;20088;-68
2021/09/11 10:17:54;;;;;;;14.60;9.50;;;20.60;81.00;;;;;;5019374;28;20044;-69
2021/09/11 10:20:20;;;;;;;15.93;9.52;;;20.60;81.20;;;;;;5026865;28;20042;-68
2021/09/11 10:23:07;;;;;;;15.23;9.68;;;20.60;81.60;;;;;;5027748;28;20083;-68
2021/09/11 10:25:46;;;;;;;14.70;7.95;;;20.60;81.60;;;;;;5020589;28;20041;-68
2021/09/11 10:28:17;;;;;;;14.57;7.57;;;20.30;80.80;;;;;;5027235;28;20068;-68
2021/09/11 10:31:01;;;;;;;14.38;7.95;;;20.20;80.80;;;;;;5024348;28;20030;-69
2021/09/11 10:33:45;;;;;;;14.02;7.60;;;20.30;81.00;;;;;;5005515;28;20034;-69
2021/09/11 10:36:12;;;;;;;;;;;20.40;81.50;;;;;;5025148;28;20050;-68
2021/09/11 10:38:40;;;;;;;15.50;7.80;;;20.30;80.60;;;;;;5038573;28;19913;-69
2021/09/11 10:41:11;;;;;;;14.35;6.90;;;20.50;79.50;;;;;;5021236;28;21332;-69
2021/09/11 10:43:38;;;;;;;12.45;6.38;;;20.40;80.00;;;;;;5020709;28;20083;-69
2021/09/11 10:46:09;;;;;;;13.68;6.90;;;20.40;80.30;;;;;;5018380;28;20049;-69
2021/09/11 10:48:42;;;;;;;12.23;7.40;;;20.20;80.40;;;;;;5015455;28;20035;-69
2021/09/11 10:51:29;;;;;;;12.82;6.50;;;20.40;80.70;;;;;;5018209;28;20038;-68
2021/09/11 10:54:00;;;;;;;13.60;6.88;;;20.60;80.60;;;;;;5030704;28;20456;-68
2021/09/11 10:56:31;;;;;;;14.82;6.72;;;20.60;80.10;;;;;;5016785;28;20099;-70
2021/09/11 10:59:15;;;;;;;13.32;6.15;;;20.60;80.80;;;;;;5008350;28;20420;-69
2021/09/11 11:01:53;;;;;;;10.65;6.18;;;20.60;80.40;;;;;;5018305;28;20042;-69
2021/09/11 11:04:31;;;;;;;12.50;6.25;;;20.60;80.40;;;;;;5024814;28;20056;-69
2021/09/11 11:07:00;;;;;;;11.30;6.47;;;20.50;80.40;;;;;;5028000;28;20042;-69
2021/09/11 11:09:25;;;;;;;11.43;5.43;;;20.40;80.20;;;;;;5024079;28;20115;-69
2021/09/11 11:11:54;;;;;;;11.35;5.45;;;20.30;79.50;;;;;;5022497;28;20050;-69
2021/09/11 11:14:20;;;;;;;11.13;5.35;;;20.20;79.30;;;;;;5015350;28;20040;-69
2021/09/11 11:16:50;;;;;;;8.35;5.03;;;20.40;78.90;;;;;;5013370;28;20397;-71
2021/09/11 11:19:31;;;;;;;11.07;5.03;;;20.50;78.80;;;;;;5013566;28;20030;-68
2021/09/11 11:22:06;;;;;;;12.07;5.22;;;20.60;78.40;;;;;;5021179;28;20111;-69
2021/09/11 11:24:35;;;;;;;8.40;5.03;;;20.70;77.90;;;;;;5009953;28;20034;-69
2021/09/11 11:27:10;;;;;;;9.82;4.65;;;20.90;77.70;;;;;;5005984;28;20520;-69
2021/09/11 11:29:36;;;;;;;8.88;3.97;;;21.00;76.30;;;;;;5023246;28;20042;-69
2021/09/11 11:32:04;;;;;;;10.80;4.40;;;21.00;75.50;;;;;;5022861;28;20063;-68
2021/09/11 11:34:30;;;;;;;8.55;3.90;;;21.10;74.80;;;;;;5025667;28;20026;-69
2021/09/11 11:36:58;;;;;;;10.38;4.22;;;21.20;74.40;;;;;;5024716;28;20595;-69
2021/09/11 11:39:30;;;;;;;9.63;4.00;;;21.20;74.30;;;;;;5028488;28;20029;-71
2021/09/11 11:41:57;;;;;;;7.47;3.47;;;21.30;74.20;;;;;;5017784;28;20048;-69
2021/09/11 11:44:23;;;;;;;7.65;3.60;;;21.30;73.80;;;;;;5024554;28;20190;-69
2021/09/11 11:47:00;;;;;;;7.80;3.70;;;21.40;73.50;;;;;;5025459;28;20514;-68
2021/09/11 11:49:36;;;;;;;8.43;3.65;;;21.50;73.90;;;;;;5020445;28;20505;-69
2021/09/11 11:52:04;;;;;;;6.53;3.42;;;21.60;73.70;;;;;;5028059;28;20034;-69
2021/09/11 11:54:30;;;;;;;10.98;4.28;;;21.70;72.70;;;;;;5028793;28;20417;-69
2021/09/11 11:57:09;;;;;;;9.60;4.28;;;21.80;70.80;;;;;;5030440;28;20425;-68
2021/09/11 11:59:35;;;;;;;8.68;3.97;;;21.90;70.80;;;;;;5022473;28;20030;-69
2021/09/11 12:02:28;;;;;;;8.68;3.70;;;22.10;70.80;;;;;;5020957;28;20056;-68
2021/09/11 12:04:54;;;;;;;7.50;3.50;;;22.10;68.70;;;;;;5020685;28;20052;-68
2021/09/11 12:07:33;;;;;;;8.88;3.72;;;22.20;68.60;;;;;;5024684;28;20053;-70
2021/09/11 12:10:00;;;;;;;7.97;3.50;;;22.40;68.50;;;;;;5025383;28;20036;-69
2021/09/11 12:12:46;;;;;;;5.47;2.72;;;22.80;67.90;;;;;;5025535;28;20060;-70
2021/09/11 12:15:14;;;;;;;7.78;3.10;;;22.80;67.20;;;;;;5018361;28;20045;-69
2021/09/11 12:17:58;;;;;;;8.18;2.80;;;23.00;65.70;;;;;;5019957;28;20037;-69
2021/09/11 12:20:26;;;;;;;6.53;2.90;;;23.00;66.40;;;;;;5025990;28;20107;-71
2021/09/11 12:23:12;;;;;;;8.25;3.25;;;23.00;65.20;;;;;;5025661;28;20037;-69
2021/09/11 12:26:06;;;;;;;6.35;2.95;;;23.20;65.30;;;;;;5025312;28;20041;-68
2021/09/11 12:28:31;;;;;;;6.22;2.58;;;23.10;64.80;;;;;;5007861;28;20474;-69
2021/09/11 12:30:58;;;;;;;9.32;3.05;;;23.10;64.90;;;;;;5000724;28;20108;-70
2021/09/11 12:33:25;;;;;;;6.35;2.85;;;23.00;65.00;;;;;;5017722;28;20033;-69
2021/09/11 12:35:51;;;;;;;6.93;2.80;;;23.10;65.70;;;;;;5024513;28;20033;-69
2021/09/11 12:38:16;;;;;;;8.15;2.63;;;23.30;65.10;;;;;;5023074;28;20037;-69
2021/09/11 12:40:42;;;;;;;8.02;3.08;;;23.20;64.90;;;;;;5023417;28;20025;-69